Highwood, Montana
Current Conditions -  °F | °C
As of 6:56 PM on Thursday 20 Nov 2014 (Local Time) from KGFA Reporting Station
Clear Clear  
Wind Chill: 30°   Ceiling: Unl
Heat Index: 40°   Visibility: 10mi
Dew Point: 30°   Wind: 24mph
Humidity: 66%   Direction: 230°SW
Pressure: 29.8"   Gusts: 31mph
Location:  47.58°N, 110.79°W
Report Text: KGFA 210156Z AUTO 23021G27KT 10SM CLR 05/M01 A2980 RMK AO2 SLP131 T00461012
Loading
Personal Weather Stations






























Interactive Weather Map New forecast layout! Learn more

10-Day Weather Forecast

Advertisements
Track Severe Weather on mobile